Peterboro, New York
Current Conditions -  °F | °C
As of 3:53 PM on Thursday 23 Oct 2014 (Local Time) from KRME Reporting Station
Light Rain Light Rain  
Wind Chill: 44°   Ceiling: 2400
Heat Index: 48°   Visibility: 10mi
Dew Point: 42°   Wind: 9mph
Humidity: 80%   Direction: 350°N
Pressure: 29.92"   Gusts: NA
Location:  42.97°N, 75.69°W
Report Text: KRME 231953Z 35008KT 10SM -RA OVC024 09/06 A2992 RMK AO2 SLP134 P0001 T00890056
Loading
Personal Weather Stations






























Interactive Weather Map
Tropical Storm Tracking
New forecast layout! Learn more

10-Day Weather Forecast

Advertisements
Track Severe Weather on mobile